Time;durP1;ratioP1;P1;durP2;ratioP2;P2;SDS_P1;SDS_P2;PMS_P1;PMS_P2;Temp;Humidity;BMP_temperature;BMP_pressure;BME280_temperature;BME280_humidity;BME280_pressure;Samples;Min_cycle;Max_cycle;Signal;HPM_P1;HPM_P2
2021/10/30 00:00:07;;;;;;;163.45;76.47;;;;;;;2.82;78.84;95278.06;1698008;83;21576;-54
2021/10/30 00:02:34;;;;;;;157.40;78.20;;;;;;;2.76;78.42;95278.82;1692933;83;21152;-55
2021/10/30 00:05:01;;;;;;;194.25;93.33;;;;;;;2.63;78.13;95278.97;1709993;83;21280;-56
2021/10/30 00:07:27;;;;;;;199.15;91.47;;;;;;;2.52;78.37;95276.81;1706770;84;21052;-55
2021/10/30 00:09:54;;;;;;;209.50;92.25;;;;;;;2.51;78.79;95280.09;1699060;83;21004;-55
2021/10/30 00:12:21;;;;;;;176.45;77.60;;;;;;;2.53;78.77;95272.94;1684262;83;21083;-54
2021/10/30 00:14:48;;;;;;;170.50;77.70;;;;;;;2.56;78.73;95276.24;1696482;83;21123;-55
2021/10/30 00:17:16;;;;;;;169.80;76.07;;;;;;;2.61;78.60;95274.50;1692781;83;21017;-55
2021/10/30 00:19:42;;;;;;;165.77;72.50;;;;;;;2.60;78.51;95278.38;1698929;83;21021;-54
2021/10/30 00:22:09;;;;;;;153.18;69.35;;;;;;;2.58;78.57;95270.64;1662758;83;21016;-55
2021/10/30 00:24:36;;;;;;;140.18;63.48;;;;;;;2.52;78.39;95272.74;1697920;83;21019;-55
2021/10/30 00:27:04;;;;;;;169.17;76.75;;;;;;;2.46;78.46;95268.83;1706079;83;21128;-56
2021/10/30 00:29:33;;;;;;;158.47;76.50;;;;;;;2.36;78.55;95270.94;1662924;83;21028;-55
2021/10/30 00:32:00;;;;;;;174.75;76.07;;;;;;;2.31;78.74;95267.23;1696127;83;20981;-54
2021/10/30 00:34:27;;;;;;;145.02;67.10;;;;;;;2.23;78.73;95265.07;1697881;83;21074;-54
2021/10/30 00:36:54;;;;;;;147.10;68.40;;;;;;;2.20;78.88;95260.41;1698957;83;21051;-55
2021/10/30 00:39:21;;;;;;;157.75;70.70;;;;;;;2.15;78.91;95260.75;1701449;83;21138;-55
2021/10/30 00:41:49;;;;;;;144.35;66.87;;;;;;;2.13;78.89;95254.17;1704828;83;21127;-55
2021/10/30 00:44:16;;;;;;;148.72;65.72;;;;;;;2.09;79.17;95253.35;1631681;86;21049;-55
2021/10/30 00:46:48;;;;;;;156.12;69.10;;;;;;;2.11;79.33;95255.13;1682476;83;21440;-55
2021/10/30 00:49:16;;;;;;;141.70;62.85;;;;;;;2.17;79.28;95254.36;1688440;83;21015;-55
2021/10/30 00:51:46;;;;;;;152.20;66.55;;;;;;;2.18;79.00;95253.80;1685300;83;21126;-56
2021/10/30 00:54:14;;;;;;;158.25;67.03;;;;;;;2.12;78.88;95258.80;1701468;83;20996;-55
2021/10/30 00:56:43;;;;;;;141.25;64.67;;;;;;;2.07;78.86;95252.96;1688915;83;21029;-57
2021/10/30 00:59:14;;;;;;;153.87;72.87;;;;;;;2.05;78.92;95255.28;1692653;83;21033;-54
2021/10/30 01:01:42;;;;;;;143.28;67.62;;;;;;;2.04;78.82;95248.30;1697301;83;21508;-55
2021/10/30 01:04:09;;;;;;;135.68;59.35;;;;;;;2.05;78.78;95251.20;1695599;83;21145;-54
2021/10/30 01:06:40;;;;;;;149.57;68.15;;;;;;;2.04;78.83;95245.02;1700419;83;20992;-55
2021/10/30 01:09:07;;;;;;;141.40;64.58;;;;;;;2.03;78.91;95244.03;1702441;83;20972;-55
2021/10/30 01:11:34;;;;;;;143.65;61.23;;;;;;;2.04;79.31;95250.45;1694948;83;20989;-55
2021/10/30 01:14:01;;;;;;;130.47;59.08;;;;;;;2.11;79.20;95238.85;1698463;83;21496;-55
2021/10/30 01:16:29;;;;;;;127.02;56.00;;;;;;;2.17;79.14;95242.15;1700922;83;21161;-55
2021/10/30 01:18:56;;;;;;;137.60;59.63;;;;;;;2.26;78.78;95247.23;1694778;83;21050;-55
2021/10/30 01:21:25;;;;;;;127.15;59.18;;;;;;;2.32;78.41;95243.00;1705328;83;21095;-55
2021/10/30 01:23:53;;;;;;;126.35;56.15;;;;;;;2.31;78.22;95240.86;1705625;83;21009;-54
2021/10/30 01:26:25;;;;;;;128.55;59.90;;;;;;;2.29;78.07;95239.70;1695217;83;21032;-55
2021/10/30 01:28:50;;;;;;;124.18;57.03;;;;;;;2.21;78.05;95236.74;1705514;83;21824;-55
2021/10/30 01:31:17;;;;;;;124.72;56.58;;;;;;;2.15;78.17;95239.64;1701422;83;21405;-56
2021/10/30 01:33:46;;;;;;;126.35;58.17;;;;;;;2.12;78.21;95232.27;1691631;83;21394;-55
2021/10/30 01:36:16;;;;;;;127.05;58.63;;;;;;;2.12;78.29;95233.62;1695841;83;21491;-54
2021/10/30 01:38:43;;;;;;;123.28;55.67;;;;;;;2.11;78.28;95234.78;1702021;83;21001;-56
2021/10/30 01:41:10;;;;;;;114.30;52.80;;;;;;;2.12;78.48;95225.48;1704657;83;21158;-55
2021/10/30 01:43:38;;;;;;;114.45;54.03;;;;;;;2.18;78.29;95240.23;1698061;83;21484;-55
2021/10/30 01:46:05;;;;;;;128.72;59.25;;;;;;;2.19;78.29;95235.79;1696435;83;20957;-55
2021/10/30 01:48:36;;;;;;;128.93;54.50;;;;;;;2.21;78.05;95232.67;1694484;83;21673;-55
2021/10/30 01:51:05;;;;;;;131.65;58.28;;;;;;;2.18;77.93;95232.09;1692574;83;21571;-55
2021/10/30 01:53:33;;;;;;;136.43;60.70;;;;;;;2.15;77.92;95233.62;1706615;84;21210;-55
2021/10/30 01:56:00;;;;;;;155.67;72.05;;;;;;;2.08;77.84;95228.17;1701197;83;21055;-57
2021/10/30 01:58:27;;;;;;;148.43;68.60;;;;;;;1.95;77.84;95227.53;1701950;83;21071;-54
2021/10/30 02:00:57;;;;;;;154.30;74.40;;;;;;;1.88;78.16;95230.19;1696403;83;22128;-55
2021/10/30 02:03:25;;;;;;;162.77;74.85;;;;;;;1.83;78.12;95240.05;1706657;83;21004;-55
2021/10/30 02:05:53;;;;;;;143.70;65.50;;;;;;;1.75;78.28;95233.05;1704795;83;21121;-55
2021/10/30 02:08:21;;;;;;;127.82;61.88;;;;;;;1.74;78.59;95232.26;1708563;83;21072;-55
2021/10/30 02:10:48;;;;;;;142.00;60.05;;;;;;;1.72;78.54;95239.20;1704099;83;21095;-55
2021/10/30 02:13:15;;;;;;;129.47;58.05;;;;;;;1.67;78.46;95235.50;1696095;83;21775;-54
2021/10/30 02:15:43;;;;;;;136.80;62.60;;;;;;;1.65;78.64;95236.46;1690135;84;21123;-55
2021/10/30 02:18:11;;;;;;;121.77;55.12;;;;;;;1.65;78.71;95247.31;1689961;84;21063;-55
2021/10/30 02:20:38;;;;;;;114.30;54.23;;;;;;;1.65;78.62;95239.77;1696168;83;21158;-53
2021/10/30 02:23:04;;;;;;;110.83;52.25;;;;;;;1.66;78.82;95239.97;1690088;84;21064;-55
2021/10/30 02:25:32;;;;;;;117.45;53.08;;;;;;;1.68;78.72;95238.41;1696190;83;21025;-54
2021/10/30 02:27:58;;;;;;;112.03;51.90;;;;;;;1.69;78.37;95241.32;1690045;83;21875;-55
2021/10/30 02:30:25;;;;;;;104.17;44.88;;;;;;;1.69;78.36;95236.49;1711848;83;21438;-55
2021/10/30 02:32:52;;;;;;;117.05;57.83;;;;;;;1.67;78.46;95238.22;1686557;84;20968;-56
2021/10/30 02:35:20;;;;;;;114.03;53.92;;;;;;;1.62;78.50;95242.64;1702769;83;21020;-55
2021/10/30 02:37:49;;;;;;;97.95;51.68;;;;;;;1.56;78.44;95248.23;1706700;84;21040;-55
2021/10/30 02:40:17;;;;;;;105.20;49.85;;;;;;;1.51;78.46;95245.85;1709646;83;21111;-56
2021/10/30 02:42:44;;;;;;;103.22;49.73;;;;;;;1.42;78.45;95245.41;1697798;83;21827;-56
2021/10/30 02:45:11;;;;;;;99.90;48.15;;;;;;;1.39;78.51;95251.59;1711414;83;21005;-56
2021/10/30 02:47:38;;;;;;;98.97;47.98;;;;;;;1.35;78.73;95256.19;1687285;83;21541;-53
2021/10/30 02:50:06;;;;;;;99.15;50.12;;;;;;;1.35;78.92;95250.77;1699536;83;21107;-53
2021/10/30 02:52:34;;;;;;;104.03;50.17;;;;;;;1.39;78.87;95259.73;1701343;83;20961;-55
2021/10/30 02:55:01;;;;;;;110.97;51.92;;;;;;;1.40;78.97;95251.80;1701345;83;21796;-54
2021/10/30 02:57:27;;;;;;;99.35;49.83;;;;;;;1.46;79.03;95258.41;1686466;83;21119;-56
2021/10/30 02:59:56;;;;;;;105.83;50.43;;;;;;;1.51;78.82;95252.63;1686617;83;21072;-56
2021/10/30 03:02:23;;;;;;;98.90;46.55;;;;;;;1.49;78.49;95259.60;1691392;83;21468;-55
2021/10/30 03:04:51;;;;;;;108.52;48.48;;;;;;;1.48;78.42;95264.83;1697791;83;21511;-55
2021/10/30 03:07:19;;;;;;;108.78;54.40;;;;;;;1.41;78.27;95256.06;1695706;83;21136;-55
2021/10/30 03:09:49;;;;;;;134.78;66.12;;;;;;;1.33;78.42;95264.52;1699959;83;21025;-55
2021/10/30 03:12:15;;;;;;;128.00;63.70;;;;;;;1.30;78.41;95267.38;1706775;83;21000;-54
2021/10/30 03:14:43;;;;;;;107.92;55.63;;;;;;;1.23;78.44;95259.21;1685822;83;21009;-55
2021/10/30 03:17:11;;;;;;;106.43;53.40;;;;;;;1.22;78.67;95263.64;1697771;83;21503;-55
2021/10/30 03:19:38;;;;;;;115.62;55.58;;;;;;;1.19;78.66;95267.89;1694817;83;21137;-55
2021/10/30 03:22:05;;;;;;;115.20;58.68;;;;;;;1.15;78.84;95260.29;1698850;83;21486;-55
2021/10/30 03:24:32;;;;;;;124.82;63.17;;;;;;;1.15;78.93;95258.94;1709503;83;21433;-55
2021/10/30 03:26:59;;;;;;;121.28;60.85;;;;;;;1.15;79.08;95256.23;1704280;83;20992;-55
2021/10/30 03:29:25;;;;;;;114.17;54.33;;;;;;;1.20;79.18;95255.91;1692711;83;20973;-55
2021/10/30 03:31:52;;;;;;;122.28;55.48;;;;;;;1.19;78.90;95254.34;1693488;83;22538;-55
2021/10/30 03:34:20;;;;;;;100.58;47.90;;;;;;;1.14;78.99;95260.09;1696205;83;21061;-55
2021/10/30 03:36:47;;;;;;;109.80;52.33;;;;;;;1.15;78.97;95256.23;1694323;84;21127;-57
2021/10/30 03:39:14;;;;;;;107.47;48.55;;;;;;;1.12;79.05;95253.51;1691796;83;21468;-55
2021/10/30 03:41:41;;;;;;;98.60;45.17;;;;;;;1.13;79.14;95250.41;1698276;83;21076;-54
2021/10/30 03:44:09;;;;;;;101.12;46.63;;;;;;;1.14;79.19;95246.55;1685268;83;21087;-55
2021/10/30 03:46:37;;;;;;;108.15;46.42;;;;;;;1.14;79.22;95247.13;1693334;83;21551;-55
2021/10/30 03:49:04;;;;;;;102.27;45.33;;;;;;;1.16;79.35;95243.47;1700321;83;20969;-55
2021/10/30 03:51:31;;;;;;;87.90;40.92;;;;;;;1.15;79.41;95248.09;1687144;83;20991;-56
2021/10/30 03:53:57;;;;;;;100.60;46.83;;;;;;;1.13;79.55;95251.77;1701679;83;21560;-53
2021/10/30 03:56:25;;;;;;;98.85;47.88;;;;;;;1.07;79.68;95250.56;1706021;83;21125;-55
2021/10/30 03:58:54;;;;;;;102.20;49.93;;;;;;;1.10;79.85;95247.69;1703730;83;21032;-56
2021/10/30 04:01:21;;;;;;;80.62;42.48;;;;;;;1.16;80.03;95248.30;1706332;82;21686;-56
2021/10/30 04:03:48;;;;;;;89.50;42.43;;;;;;;1.23;80.15;95247.02;1706648;83;21056;-55
2021/10/30 04:06:16;;;;;;;84.62;40.80;;;;;;;1.25;79.44;95244.70;1705769;83;20965;-56
2021/10/30 04:08:45;;;;;;;84.07;41.95;;;;;;;1.22;79.42;95246.02;1690830;83;21137;-55
2021/10/30 04:11:12;;;;;;;97.08;44.88;;;;;;;1.18;79.22;95244.63;1702197;83;21028;-54
2021/10/30 04:13:39;;;;;;;83.37;39.98;;;;;;;1.20;79.49;95245.63;1677935;83;21082;-56
2021/10/30 04:16:06;;;;;;;101.75;46.15;;;;;;;1.21;79.31;95241.20;1700041;83;21004;-55
2021/10/30 04:18:33;;;;;;;95.47;42.08;;;;;;;1.13;78.98;95241.52;1699878;83;21484;-56
2021/10/30 04:21:01;;;;;;;92.97;42.33;;;;;;;1.02;78.96;95245.49;1698172;83;21140;-55
2021/10/30 04:23:28;;;;;;;98.65;44.98;;;;;;;0.94;79.05;95247.16;1699088;83;21577;-56
2021/10/30 04:25:55;;;;;;;105.95;47.58;;;;;;;0.86;79.20;95254.44;1695490;83;21036;-54
2021/10/30 04:28:22;;;;;;;119.47;48.63;;;;;;;0.81;79.48;95238.51;1682106;83;21467;-55
2021/10/30 04:30:49;;;;;;;112.90;46.73;;;;;;;0.79;79.56;95235.40;1688136;83;21071;-56
2021/10/30 04:33:17;;;;;;;99.17;41.02;;;;;;;0.79;79.70;95240.81;1702372;83;21157;-56
2021/10/30 04:35:46;;;;;;;101.15;42.98;;;;;;;0.83;79.93;95238.94;1699243;83;21064;-56
2021/10/30 04:38:13;;;;;;;100.30;39.70;;;;;;;0.91;80.09;95238.41;1697430;83;21078;-55
2021/10/30 04:40:40;;;;;;;92.72;40.78;;;;;;;0.99;80.45;95245.45;1673617;83;21064;-56
2021/10/30 04:43:07;;;;;;;80.72;40.43;;;;;;;1.07;80.27;95241.08;1664473;84;21063;-56
2021/10/30 04:45:40;;;;;;;97.47;42.85;;;;;;;1.13;80.17;95239.57;1682734;83;21512;-55
2021/10/30 04:48:08;;;;;;;98.62;42.40;;;;;;;1.17;79.81;95232.83;1700284;83;20980;-57
2021/10/30 04:50:36;;;;;;;100.75;42.05;;;;;;;1.17;79.63;95240.96;1685739;84;20977;-56
2021/10/30 04:53:03;;;;;;;99.62;42.75;;;;;;;1.11;79.46;95231.05;1665494;84;21026;-57
2021/10/30 04:55:30;;;;;;;78.50;38.95;;;;;;;1.01;79.49;95238.52;1694987;83;21060;-57
2021/10/30 04:57:57;;;;;;;112.42;46.63;;;;;;;0.89;79.62;95238.00;1691230;84;21811;-56
2021/10/30 05:00:24;;;;;;;193.17;95.25;;;;;;;0.78;79.86;95243.91;1700743;83;20961;-56
2021/10/30 05:02:52;;;;;;;149.55;69.85;;;;;;;0.73;80.01;95245.58;1700762;83;21464;-57
2021/10/30 05:05:19;;;;;;;134.95;64.53;;;;;;;0.72;80.33;95244.03;1695262;83;21472;-56
2021/10/30 05:07:47;;;;;;;145.87;69.45;;;;;;;0.78;80.71;95247.38;1703817;83;21642;-56
2021/10/30 05:10:14;;;;;;;172.75;84.87;;;;;;;0.81;80.24;95249.34;1696945;83;21864;-58
2021/10/30 05:12:42;;;;;;;161.80;70.40;;;;;;;0.77;80.38;95236.94;1689779;83;21005;-55
2021/10/30 05:15:09;;;;;;;185.43;74.40;;;;;;;0.74;80.42;95235.75;1696955;83;21052;-56
2021/10/30 05:17:38;;;;;;;166.80;76.65;;;;;;;0.71;80.52;95236.50;1700852;83;21000;-55
2021/10/30 05:20:07;;;;;;;139.52;60.08;;;;;;;0.72;80.64;95239.41;1691431;83;21040;-57
2021/10/30 05:22:34;;;;;;;145.85;60.78;;;;;;;0.74;80.80;95246.58;1696675;83;21789;-56
2021/10/30 05:25:01;;;;;;;158.87;64.47;;;;;;;0.75;80.90;95246.02;1696782;83;21017;-57
2021/10/30 05:27:27;;;;;;;162.45;71.12;;;;;;;0.73;81.03;95246.38;1700780;83;21221;-58
2021/10/30 05:29:54;;;;;;;155.70;68.55;;;;;;;0.76;81.27;95251.63;1692160;83;20961;-57
2021/10/30 05:32:21;;;;;;;178.40;80.32;;;;;;;0.79;81.14;95253.59;1697077;83;21011;-57
2021/10/30 05:35:06;;;;;;;171.65;79.92;;;;;;;0.79;81.30;95253.00;1632254;86;21167;-56
2021/10/30 05:37:50;;;;;;;164.25;71.67;;;;;;;0.85;81.56;95243.97;1665724;83;21505;-57
2021/10/30 05:40:17;;;;;;;190.47;81.55;;;;;;;0.92;81.55;95247.52;1702076;83;21025;-57
2021/10/30 05:42:43;;;;;;;167.00;87.27;;;;;;;1.00;81.68;95249.72;1633807;86;21025;-56
2021/10/30 05:45:11;;;;;;;229.23;117.72;;;;;;;1.10;81.54;95245.74;1655685;86;21030;-57
2021/10/30 05:47:38;;;;;;;179.85;92.85;;;;;;;1.09;81.29;95253.67;1653345;86;21491;-56
2021/10/30 05:50:07;;;;;;;220.37;103.78;;;;;;;1.08;81.29;95257.53;1685984;84;20968;-57
2021/10/30 05:52:34;;;;;;;196.40;98.95;;;;;;;1.06;81.19;95255.78;1697199;83;21560;-57
2021/10/30 05:55:01;;;;;;;198.80;96.25;;;;;;;1.08;81.63;95246.70;1698172;83;21089;-57
2021/10/30 05:57:28;;;;;;;180.07;84.35;;;;;;;1.19;81.61;95242.72;1707040;83;21103;-56
2021/10/30 05:59:55;;;;;;;110.55;58.98;;;;;;;1.24;81.56;95247.22;1701484;83;21147;-56
2021/10/30 06:02:21;;;;;;;158.00;72.82;;;;;;;1.28;81.33;95248.02;1709338;83;21026;-56
2021/10/30 06:04:53;;;;;;;177.15;81.15;;;;;;;1.25;81.31;95249.34;1683763;83;21083;-58
2021/10/30 06:07:19;;;;;;;163.22;79.58;;;;;;;1.21;81.37;95252.03;1696128;83;20980;-57
2021/10/30 06:09:46;;;;;;;136.25;67.47;;;;;;;1.26;81.50;95257.09;1684054;84;21115;-56
2021/10/30 06:12:13;;;;;;;186.40;86.72;;;;;;;1.28;81.51;95253.44;1696493;83;21057;-57
2021/10/30 06:14:40;;;;;;;193.35;89.42;;;;;;;1.24;81.47;95254.55;1692505;83;21076;-58
2021/10/30 06:17:07;;;;;;;192.43;87.88;;;;;;;1.27;81.86;95258.66;1638619;86;21509;-56
2021/10/30 06:19:34;;;;;;;155.27;81.22;;;;;;;1.39;81.99;95252.16;1639300;86;20997;-56
2021/10/30 06:22:01;;;;;;;183.00;93.90;;;;;;;1.43;81.83;95251.60;1660251;86;21033;-56
2021/10/30 06:24:28;;;;;;;166.00;84.87;;;;;;;1.40;81.90;95255.86;1639378;86;21048;-57
2021/10/30 06:26:55;;;;;;;198.35;92.95;;;;;;;1.51;82.37;95258.64;1639328;86;20954;-58
2021/10/30 06:29:21;;;;;;;175.70;88.75;;;;;;;1.63;82.17;95259.67;1660421;85;21501;-57
2021/10/30 06:31:48;;;;;;;197.37;100.78;;;;;;;1.71;82.02;95259.34;1660442;86;21089;-57
2021/10/30 06:34:15;;;;;;;190.10;103.83;;;;;;;1.76;81.81;95258.41;1660357;86;20965;-58
2021/10/30 06:36:42;;;;;;;197.25;106.58;;;;;;;1.78;81.62;95259.41;1660470;86;21159;-58
2021/10/30 06:39:09;;;;;;;190.50;105.00;;;;;;;1.85;81.64;95270.28;1639516;86;21537;-56
2021/10/30 06:41:36;;;;;;;195.57;105.92;;;;;;;1.97;81.76;95267.27;1660361;86;21470;-58
2021/10/30 06:44:03;;;;;;;156.00;87.97;;;;;;;2.16;81.89;95259.59;1639425;86;20989;-59
2021/10/30 06:46:32;;;;;;;135.52;78.07;;;;;;;2.35;81.60;95266.67;1660488;86;21105;-56
2021/10/30 06:48:59;;;;;;;145.82;81.00;;;;;;;2.49;81.10;95262.66;1660373;86;21157;-57
2021/10/30 06:51:26;;;;;;;136.50;80.10;;;;;;;2.55;80.92;95259.75;1634586;86;20982;-58
2021/10/30 06:53:53;;;;;;;123.82;75.25;;;;;;;2.64;80.80;95258.23;1660468;85;21005;-58
2021/10/30 06:56:20;;;;;;;120.17;72.30;;;;;;;2.68;80.64;95256.30;1660425;86;21010;-58
2021/10/30 06:58:47;;;;;;;137.35;76.50;;;;;;;2.78;80.81;95251.48;1639361;86;20973;-57
2021/10/30 07:01:14;;;;;;;92.67;54.83;;;;;;;2.97;80.99;95247.62;1660425;85;21138;-57
2021/10/30 07:03:43;;;;;;;83.87;50.08;;;;;;;3.21;80.65;95247.64;1639461;86;21061;-58
2021/10/30 07:06:11;;;;;;;81.15;48.42;;;;;;;3.37;80.17;95249.97;1640219;86;21025;-56
2021/10/30 07:08:38;;;;;;;76.60;46.15;;;;;;;3.46;79.95;95249.01;1655750;86;21064;-59
2021/10/30 07:11:05;;;;;;;78.42;48.95;;;;;;;3.49;79.90;95242.98;1639477;86;21438;-57
2021/10/30 07:13:33;;;;;;;79.17;47.98;;;;;;;3.53;79.75;95241.62;1662677;86;21466;-58
2021/10/30 07:16:01;;;;;;;91.92;53.05;;;;;;;3.61;79.87;95238.51;1639572;86;21093;-57
2021/10/30 07:18:28;;;;;;;89.45;51.02;;;;;;;3.76;79.90;95235.97;1639491;86;21081;-57
2021/10/30 07:20:54;;;;;;;65.28;41.20;;;;;;;3.95;79.72;95236.10;1660412;86;20990;-60
2021/10/30 07:23:21;;;;;;;90.42;54.10;;;;;;;4.14;79.49;95231.00;1639648;86;21025;-58
2021/10/30 07:25:48;;;;;;;85.87;49.42;;;;;;;4.32;79.21;95237.16;1660422;85;21924;-57
2021/10/30 07:28:15;;;;;;;63.42;40.03;;;;;;;4.50;79.16;95228.33;1660272;86;21021;-57
2021/10/30 07:30:43;;;;;;;63.15;36.75;;;;;;;4.72;79.13;95227.62;1660284;86;20969;-56
2021/10/30 07:33:10;;;;;;;62.55;39.70;;;;;;;4.92;78.96;95221.27;1660829;86;21009;-59
2021/10/30 07:35:37;;;;;;;65.72;37.83;;;;;;;5.10;78.81;95215.12;1660377;86;20969;-57
2021/10/30 07:38:03;;;;;;;59.13;35.05;;;;;;;5.27;78.61;95218.30;1660419;85;21200;-57
2021/10/30 07:40:31;;;;;;;51.68;29.57;;;;;;;5.41;78.32;95206.68;1660180;86;21029;-56
2021/10/30 07:42:59;;;;;;;45.63;25.85;;;;;;;5.60;78.08;95207.48;1678147;83;21712;-59
2021/10/30 07:45:27;;;;;;;44.98;24.15;;;;;;;5.82;77.84;95208.09;1699829;83;21081;-57
2021/10/30 07:47:57;;;;;;;34.38;19.95;;;;;;;6.00;77.60;95205.95;1684136;82;21261;-57
2021/10/30 07:50:28;;;;;;;20.48;13.10;;;;;;;6.18;77.04;95210.03;1705855;83;21315;-56
2021/10/30 07:52:57;;;;;;;30.37;15.72;;;;;;;6.38;76.59;95203.38;1702491;82;20960;-57
2021/10/30 07:55:23;;;;;;;28.85;14.00;;;;;;;6.56;75.78;95205.30;1697764;83;21068;-59
2021/10/30 07:57:50;;;;;;;33.65;19.50;;;;;;;6.73;75.29;95196.09;1703008;83;21056;-58
2021/10/30 08:00:17;;;;;;;42.45;21.90;;;;;;;6.88;74.82;95190.61;1683286;83;20960;-60
2021/10/30 08:02:45;;;;;;;34.60;21.77;;;;;;;7.04;74.51;95185.30;1681990;83;21673;-58
2021/10/30 08:05:12;;;;;;;36.45;20.50;;;;;;;7.20;73.88;95176.63;1698082;83;21115;-57
2021/10/30 08:07:43;;;;;;;40.67;22.93;;;;;;;7.35;73.28;95174.61;1702385;83;21174;-56
2021/10/30 08:10:11;;;;;;;45.23;27.75;;;;;;;7.50;72.81;95177.30;1684551;83;21483;-58
2021/10/30 08:12:40;;;;;;;37.53;20.88;;;;;;;7.63;72.34;95168.67;1695288;83;21579;-57
2021/10/30 08:15:08;;;;;;;45.73;23.95;;;;;;;7.74;71.86;95161.03;1708056;82;21145;-56
2021/10/30 08:17:35;;;;;;;46.33;26.07;;;;;;;7.87;71.64;95159.23;1706525;83;21070;-59
2021/10/30 08:20:03;;;;;;;44.63;23.85;;;;;;;8.00;71.52;95160.75;1706160;83;21047;-57
2021/10/30 08:22:30;;;;;;;42.17;23.30;;;;;;;8.16;71.50;95156.14;1704318;83;21087;-56
2021/10/30 08:24:59;;;;;;;32.05;21.70;;;;;;;8.31;71.45;95157.44;1634385;86;21465;-57
2021/10/30 08:27:26;;;;;;;28.05;19.67;;;;;;;8.49;71.25;95157.85;1681513;83;21117;-58
2021/10/30 08:29:53;;;;;;;43.85;20.62;;;;;;;8.66;70.98;95145.70;1695759;83;21084;-57
2021/10/30 08:32:19;;;;;;;27.05;16.50;;;;;;;8.86;70.71;95152.53;1679008;84;21021;-60
2021/10/30 08:34:47;;;;;;;26.55;16.90;;;;;;;9.05;70.14;95152.50;1708275;83;21091;-58
2021/10/30 08:37:14;;;;;;;23.25;13.80;;;;;;;9.23;69.90;95151.48;1628605;86;21088;-56
2021/10/30 08:39:41;;;;;;;28.70;15.00;;;;;;;9.44;69.08;95148.98;1684762;83;21207;-57
2021/10/30 08:42:08;;;;;;;27.80;17.57;;;;;;;9.68;68.36;95148.19;1683239;83;21436;-57
2021/10/30 08:44:37;;;;;;;28.00;14.68;;;;;;;9.94;67.56;95142.98;1704917;83;21115;-58
2021/10/30 08:47:05;;;;;;;27.52;14.78;;;;;;;10.27;66.58;95138.97;1673649;83;21500;-59
2021/10/30 08:49:35;;;;;;;20.95;13.75;;;;;;;10.56;65.68;95141.84;1702118;83;20947;-58
2021/10/30 08:52:03;;;;;;;24.20;13.20;;;;;;;10.90;65.27;95141.42;1697764;83;21131;-58
2021/10/30 08:54:30;;;;;;;19.65;12.00;;;;;;;11.29;63.72;95135.47;1695286;83;21130;-58
2021/10/30 08:56:57;;;;;;;23.92;12.90;;;;;;;11.66;62.22;95123.66;1684105;83;21075;-58
2021/10/30 08:59:45;;;;;;;25.80;14.13;;;;;;;11.98;60.66;95117.05;1643539;83;21741;-58
2021/10/30 09:02:28;;;;;;;24.60;14.33;;;;;;;12.19;59.63;95118.46;1699969;83;21076;-58
2021/10/30 09:05:14;;;;;;;;;;;;;;;12.33;59.10;95113.82;1685768;83;21101;-57
2021/10/30 09:07:46;;;;;;;24.52;14.85;;;;;;;12.50;58.56;95110.24;1722545;81;20206;-63
2021/10/30 09:10:22;;;;;;;25.90;15.70;;;;;;;12.65;58.00;95107.87;1682970;84;21062;-57
2021/10/30 09:12:54;;;;;;;27.75;15.32;;;;;;;12.80;57.35;95105.53;1715830;82;21058;-58
2021/10/30 09:15:34;;;;;;;26.23;16.12;;;;;;;12.90;57.18;95102.95;1712691;82;20947;-58
2021/10/30 09:18:02;;;;;;;27.70;16.57;;;;;;;13.00;56.91;95099.66;1702686;82;21407;-58
2021/10/30 09:20:33;;;;;;;25.55;14.87;;;;;;;13.12;56.93;95105.07;1677809;83;21074;-56
2021/10/30 09:22:59;;;;;;;32.58;17.55;;;;;;;13.30;56.62;95100.24;1725255;82;21523;-60
2021/10/30 09:25:28;;;;;;;30.27;17.40;;;;;;;13.51;55.93;95098.00;1701408;82;37760;-60
2021/10/30 09:28:01;;;;;;;23.42;15.68;;;;;;;13.73;55.55;95091.73;1701377;82;21167;-61
2021/10/30 09:30:31;;;;;;;36.95;17.65;;;;;;;13.94;54.84;95090.23;1661589;83;21114;-57
2021/10/30 09:33:05;;;;;;;28.87;16.20;;;;;;;14.07;54.37;95083.16;1726088;81;21628;-58
2021/10/30 09:35:43;;;;;;;28.90;15.60;;;;;;;14.24;53.79;95083.03;1718350;82;20951;-58
2021/10/30 09:38:14;;;;;;;26.48;13.90;;;;;;;14.39;53.50;95080.55;1722124;82;21029;-59
2021/10/30 09:40:41;;;;;;;22.75;13.10;;;;;;;14.64;52.91;95072.66;1719113;81;21052;-58
2021/10/30 09:43:11;;;;;;;22.07;12.90;;;;;;;15.03;52.14;95073.64;1730002;81;21132;-62
2021/10/30 09:45:48;;;;;;;21.60;11.93;;;;;;;15.49;51.24;95065.27;1709248;82;21473;-57
2021/10/30 09:48:27;;;;;;;25.02;12.78;;;;;;;16.03;49.70;95060.14;1696164;83;21557;-58
2021/10/30 09:50:58;;;;;;;25.35;12.80;;;;;;;16.70;48.36;95058.80;1688389;84;21610;-57
2021/10/30 09:53:34;;;;;;;24.65;12.82;;;;;;;17.30;47.05;95058.39;1690765;83;20950;-58
2021/10/30 09:56:08;;;;;;;29.90;11.28;;;;;;;17.83;45.55;95056.79;1697971;83;21160;-57
2021/10/30 09:58:39;;;;;;;21.60;12.35;;;;;;;18.32;44.08;95059.56;1677372;83;21001;-57
2021/10/30 10:01:18;;;;;;;19.48;11.57;;;;;;;18.66;43.30;95055.13;1676563;84;21050;-59
2021/10/30 10:03:49;;;;;;;14.00;10.28;;;;;;;19.04;42.18;95054.73;1682853;83;21101;-58
2021/10/30 10:06:22;;;;;;;28.90;10.93;;;;;;;19.36;41.25;95048.66;1681497;84;21491;-58
2021/10/30 10:08:48;;;;;;;15.00;10.72;;;;;;;19.56;40.71;95044.36;1669878;83;21863;-61
2021/10/30 10:11:18;;;;;;;15.90;10.28;;;;;;;19.88;40.14;95039.46;1695286;83;21443;-58
2021/10/30 10:13:49;;;;;;;21.93;10.90;;;;;;;20.33;39.80;95027.38;1695462;83;21144;-58
2021/10/30 10:16:19;;;;;;;20.17;10.13;;;;;;;21.04;38.46;95028.80;1692447;83;20998;-58
2021/10/30 10:18:58;;;;;;;16.70;8.53;;;;;;;21.80;37.72;95018.85;1680564;84;20991;-58
2021/10/30 10:21:35;;;;;;;19.75;8.98;;;;;;;22.43;36.78;95018.36;1679396;84;21893;-58
2021/10/30 10:24:02;;;;;;;18.77;9.20;;;;;;;23.01;34.94;95017.64;1688166;84;21811;-58
2021/10/30 10:26:35;;;;;;;17.30;11.55;;;;;;;23.45;34.43;95016.66;1657565;84;21567;-58
2021/10/30 10:29:04;;;;;;;16.48;9.65;;;;;;;23.80;33.53;95015.17;1673956;83;21008;-60
2021/10/30 10:31:32;;;;;;;17.20;10.32;;;;;;;24.16;32.50;95012.34;1684960;82;21118;-59
2021/10/30 10:34:13;;;;;;;19.05;9.78;;;;;;;24.43;31.92;94993.72;1694591;83;22030;-60
2021/10/30 10:36:40;;;;;;;24.40;10.30;;;;;;;24.75;31.36;94991.03;1689635;83;21464;-60
2021/10/30 10:39:10;;;;;;;20.80;10.13;;;;;;;25.20;30.77;94989.08;1699386;83;20971;-60
2021/10/30 10:41:50;;;;;;;16.62;10.20;;;;;;;25.58;30.26;94986.24;1706432;83;21030;-58
2021/10/30 10:44:40;;;;;;;13.58;9.65;;;;;;;26.01;29.67;94991.11;1685525;83;21516;-59
2021/10/30 10:47:04;;;;;;;17.20;10.55;;;;;;;26.58;28.87;94989.44;1704511;82;21800;-59
2021/10/30 10:49:40;;;;;;;17.67;9.48;;;;;;;26.95;28.14;94989.12;1710946;83;21000;-58
2021/10/30 10:52:24;;;;;;;19.23;10.32;;;;;;;27.30;28.57;94990.77;1708251;82;21590;-58
2021/10/30 10:55:05;;;;;;;23.65;11.15;;;;;;;27.91;28.30;94981.49;1688044;84;21430;-58
2021/10/30 10:57:47;;;;;;;12.10;8.55;;;;;;;28.67;27.49;94984.88;1706740;82;21018;-58
2021/10/30 11:00:17;;;;;;;16.07;7.90;;;;;;;29.36;26.04;94985.97;1706450;83;21167;-61
2021/10/30 11:02:53;;;;;;;16.60;8.28;;;;;;;29.79;25.15;94974.47;1714753;82;21176;-58
2021/10/30 11:05:30;;;;;;;19.57;8.83;;;;;;;30.00;24.96;94972.31;1691600;84;21052;-57
2021/10/30 11:08:03;;;;;;;17.00;8.60;;;;;;;30.09;24.92;94972.39;1696004;83;21230;-57
2021/10/30 11:10:35;;;;;;;14.33;7.90;;;;;;;30.17;24.42;94963.95;1696135;83;21029;-59
2021/10/30 11:13:09;;;;;;;19.10;8.30;;;;;;;30.18;23.94;94964.08;1695061;83;21794;-58
2021/10/30 11:15:56;;;;;;;10.28;6.92;;;;;;;30.28;24.09;94962.83;1692563;84;21053;-59
2021/10/30 11:18:46;;;;;;;12.25;7.42;;;;;;;30.52;24.29;94965.76;1667697;84;21690;-60
2021/10/30 11:21:29;;;;;;;17.27;8.83;;;;;;;30.69;23.71;94950.30;1666946;84;21038;-59
2021/10/30 11:23:55;;;;;;;13.43;7.50;;;;;;;30.91;23.97;94953.72;1693137;84;20991;-57
2021/10/30 11:26:30;;;;;;;23.15;10.50;;;;;;;31.00;23.12;94945.98;1707117;82;21150;-57